sensor_id;sensor_type;location;lat;lon;timestamp;pressure;altitude;pressure_sealevel;temperature;humidity
60820;BME280;46641;48.904;9.126;2023-07-09T00:00:35;98861.81;;;30.00;33.91
60820;BME280;46641;48.904;9.126;2023-07-09T00:05:25;98867.19;;;29.95;33.54
60820;BME280;46641;48.904;9.126;2023-07-09T00:10:20;98862.84;;;29.89;34.29
60820;BME280;46641;48.904;9.126;2023-07-09T00:15:13;98864.72;;;29.83;34.08
60820;BME280;46641;48.904;9.126;2023-07-09T00:20:04;98863.09;;;29.77;34.03
60820;BME280;46641;48.904;9.126;2023-07-09T00:24:55;98870.34;;;29.71;34.23
60820;BME280;46641;48.904;9.126;2023-07-09T00:29:47;98871.13;;;29.67;33.96
60820;BME280;46641;48.904;9.126;2023-07-09T00:34:37;98876.25;;;29.63;33.92
60820;BME280;46641;48.904;9.126;2023-07-09T00:39:28;98874.56;;;29.57;34.00
60820;BME280;46641;48.904;9.126;2023-07-09T00:54:28;98884.72;;;29.40;34.21
60820;BME280;46641;48.904;9.126;2023-07-09T00:59:24;98884.69;;;29.34;34.55
60820;BME280;46641;48.904;9.126;2023-07-09T01:04:20;98880.09;;;29.30;34.80
60820;BME280;46641;48.904;9.126;2023-07-09T01:09:11;98883.03;;;29.23;34.55
60820;BME280;46641;48.904;9.126;2023-07-09T01:14:04;98888.38;;;29.18;34.48
60820;BME280;46641;48.904;9.126;2023-07-09T01:18:56;98891.03;;;29.13;34.62
60820;BME280;46641;48.904;9.126;2023-07-09T01:23:49;98893.44;;;29.09;34.35
60820;BME280;46641;48.904;9.126;2023-07-09T01:28:40;98887.19;;;29.04;34.61
60820;BME280;46641;48.904;9.126;2023-07-09T01:33:36;98882.56;;;28.99;34.92
60820;BME280;46641;48.904;9.126;2023-07-09T01:38:29;98887.91;;;28.94;34.40
60820;BME280;46641;48.904;9.126;2023-07-09T01:43:20;98890.31;;;28.91;34.85
60820;BME280;46641;48.904;9.126;2023-07-09T01:48:10;98876.78;;;28.85;35.05
60820;BME280;46641;48.904;9.126;2023-07-09T01:53:04;98886.47;;;28.81;34.91
60820;BME280;46641;48.904;9.126;2023-07-09T01:57:54;98889.94;;;28.77;35.02
60820;BME280;46641;48.904;9.126;2023-07-09T02:02:46;98892.56;;;28.72;34.90
60820;BME280;46641;48.904;9.126;2023-07-09T02:07:36;98890.66;;;28.67;34.71
60820;BME280;46641;48.904;9.126;2023-07-09T02:12:27;98892.22;;;28.63;35.10
60820;BME280;46641;48.904;9.126;2023-07-09T02:17:17;98897.31;;;28.59;35.25
60820;BME280;46641;48.904;9.126;2023-07-09T02:22:08;98898.31;;;28.53;35.04
60820;BME280;46641;48.904;9.126;2023-07-09T02:27:00;98899.91;;;28.49;35.38
60820;BME280;46641;48.904;9.126;2023-07-09T02:31:52;98892.59;;;28.45;35.45
60820;BME280;46641;48.904;9.126;2023-07-09T02:36:42;98900.63;;;28.39;35.11
60820;BME280;46641;48.904;9.126;2023-07-09T02:41:33;98901.09;;;28.36;35.28
60820;BME280;46641;48.904;9.126;2023-07-09T02:46:24;98907.00;;;28.33;35.37
60820;BME280;46641;48.904;9.126;2023-07-09T02:51:14;98905.06;;;28.29;35.19
60820;BME280;46641;48.904;9.126;2023-07-09T02:56:04;98911.19;;;28.24;35.12
60820;BME280;46641;48.904;9.126;2023-07-09T03:00:54;98907.38;;;28.20;35.46
60820;BME280;46641;48.904;9.126;2023-07-09T03:05:46;98899.28;;;28.15;35.22
60820;BME280;46641;48.904;9.126;2023-07-09T03:10:36;98918.63;;;28.12;35.32
60820;BME280;46641;48.904;9.126;2023-07-09T03:15:26;98915.84;;;28.07;35.37
60820;BME280;46641;48.904;9.126;2023-07-09T03:20:17;98919.84;;;28.04;35.51
60820;BME280;46641;48.904;9.126;2023-07-09T03:25:07;98915.25;;;28.00;35.60
60820;BME280;46641;48.904;9.126;2023-07-09T03:29:57;98917.34;;;27.98;35.46
60820;BME280;46641;48.904;9.126;2023-07-09T03:34:47;98910.28;;;27.91;35.34
60820;BME280;46641;48.904;9.126;2023-07-09T03:39:38;98922.63;;;27.87;35.56
60820;BME280;46641;48.904;9.126;2023-07-09T03:44:28;98924.19;;;27.83;35.85
60820;BME280;46641;48.904;9.126;2023-07-09T03:49:18;98931.94;;;27.80;35.62
60820;BME280;46641;48.904;9.126;2023-07-09T03:54:09;98930.81;;;27.76;36.07
60820;BME280;46641;48.904;9.126;2023-07-09T03:58:59;98933.16;;;27.72;35.68
60820;BME280;46641;48.904;9.126;2023-07-09T04:03:49;98937.41;;;27.68;35.89
60820;BME280;46641;48.904;9.126;2023-07-09T04:08:40;98933.59;;;27.64;35.91
60820;BME280;46641;48.904;9.126;2023-07-09T04:13:30;98932.47;;;27.60;35.95
60820;BME280;46641;48.904;9.126;2023-07-09T04:18:20;98939.38;;;27.56;35.91
60820;BME280;46641;48.904;9.126;2023-07-09T04:23:11;98937.19;;;27.53;36.04
60820;BME280;46641;48.904;9.126;2023-07-09T04:28:02;98940.41;;;27.49;35.83
60820;BME280;46641;48.904;9.126;2023-07-09T04:32:52;98940.88;;;27.46;35.81
60820;BME280;46641;48.904;9.126;2023-07-09T04:37:43;98951.06;;;27.44;35.98
60820;BME280;46641;48.904;9.126;2023-07-09T04:42:33;98950.47;;;27.42;35.76
60820;BME280;46641;48.904;9.126;2023-07-09T04:47:23;98950.97;;;27.39;36.21
60820;BME280;46641;48.904;9.126;2023-07-09T04:52:14;98952.31;;;27.37;35.99
60820;BME280;46641;48.904;9.126;2023-07-09T04:57:05;98957.34;;;27.33;36.13
60820;BME280;46641;48.904;9.126;2023-07-09T05:01:56;98955.72;;;27.32;36.06
60820;BME280;46641;48.904;9.126;2023-07-09T05:06:46;98955.38;;;27.29;36.13
60820;BME280;46641;48.904;9.126;2023-07-09T05:11:36;98962.88;;;27.26;36.35
60820;BME280;46641;48.904;9.126;2023-07-09T05:16:26;98979.53;;;27.23;36.47
60820;BME280;46641;48.904;9.126;2023-07-09T05:21:17;98972.50;;;27.22;36.17
60820;BME280;46641;48.904;9.126;2023-07-09T05:26:08;98972.97;;;27.19;36.22
60820;BME280;46641;48.904;9.126;2023-07-09T05:30:59;98972.16;;;27.19;36.27
60820;BME280;46641;48.904;9.126;2023-07-09T05:35:49;98975.13;;;27.17;36.41
60820;BME280;46641;48.904;9.126;2023-07-09T05:40:40;98975.13;;;27.17;36.38
60820;BME280;46641;48.904;9.126;2023-07-09T05:45:31;98977.22;;;27.15;36.41
60820;BME280;46641;48.904;9.126;2023-07-09T05:50:22;98980.72;;;27.16;37.57
60820;BME280;46641;48.904;9.126;2023-07-09T05:55:12;98974.78;;;27.14;36.65
60820;BME280;46641;48.904;9.126;2023-07-09T06:00:03;98980.38;;;27.12;36.37
60820;BME280;46641;48.904;9.126;2023-07-09T06:04:53;98980.16;;;27.14;36.40
60820;BME280;46641;48.904;9.126;2023-07-09T06:09:44;98990.06;;;27.13;36.67
60820;BME280;46641;48.904;9.126;2023-07-09T06:14:35;98977.47;;;27.14;36.47
60820;BME280;46641;48.904;9.126;2023-07-09T06:19:26;98986.53;;;27.13;36.14
60820;BME280;46641;48.904;9.126;2023-07-09T06:24:17;98989.25;;;27.13;36.22
60820;BME280;46641;48.904;9.126;2023-07-09T06:29:07;98983.84;;;27.13;36.43
60820;BME280;46641;48.904;9.126;2023-07-09T06:33:57;98993.59;;;27.14;36.37
60820;BME280;46641;48.904;9.126;2023-07-09T06:38:47;98978.47;;;27.13;36.59
60820;BME280;46641;48.904;9.126;2023-07-09T06:43:38;98980.16;;;27.14;36.25
60820;BME280;46641;48.904;9.126;2023-07-09T06:48:32;98975.59;;;27.14;36.37
60820;BME280;46641;48.904;9.126;2023-07-09T06:53:23;98983.41;;;27.16;36.52
60820;BME280;46641;48.904;9.126;2023-07-09T06:58:13;98981.31;;;27.18;36.67
60820;BME280;46641;48.904;9.126;2023-07-09T07:03:04;98989.09;;;27.19;36.46
60820;BME280;46641;48.904;9.126;2023-07-09T07:07:55;98986.19;;;27.21;36.47
60820;BME280;46641;48.904;9.126;2023-07-09T07:12:47;98985.38;;;27.20;39.61
60820;BME280;46641;48.904;9.126;2023-07-09T07:17:38;98983.88;;;27.30;39.41
60820;BME280;46641;48.904;9.126;2023-07-09T07:22:28;98978.59;;;27.35;38.49
60820;BME280;46641;48.904;9.126;2023-07-09T07:27:19;98979.19;;;27.37;38.25
60820;BME280;46641;48.904;9.126;2023-07-09T07:32:09;98980.31;;;27.41;38.13
60820;BME280;46641;48.904;9.126;2023-07-09T07:36:59;98976.31;;;27.43;38.40
60820;BME280;46641;48.904;9.126;2023-07-09T07:41:49;98972.31;;;27.46;38.03
60820;BME280;46641;48.904;9.126;2023-07-09T07:46:40;98965.63;;;27.48;38.04
60820;BME280;46641;48.904;9.126;2023-07-09T07:51:31;98965.41;;;27.50;37.84
60820;BME280;46641;48.904;9.126;2023-07-09T07:56:21;98961.97;;;27.55;37.61
60820;BME280;46641;48.904;9.126;2023-07-09T08:01:12;98949.63;;;27.59;37.63
60820;BME280;46641;48.904;9.126;2023-07-09T08:06:02;98952.66;;;27.62;37.44
60820;BME280;46641;48.904;9.126;2023-07-09T08:11:00;98945.47;;;27.68;37.38
60820;BME280;46641;48.904;9.126;2023-07-09T08:15:51;98951.16;;;27.71;37.64
60820;BME280;46641;48.904;9.126;2023-07-09T08:20:44;98940.72;;;27.75;37.49
60820;BME280;46641;48.904;9.126;2023-07-09T08:25:35;98946.22;;;27.80;37.18
60820;BME280;46641;48.904;9.126;2023-07-09T08:30:25;98942.53;;;27.86;36.84
60820;BME280;46641;48.904;9.126;2023-07-09T08:35:15;98944.22;;;27.92;37.23
60820;BME280;46641;48.904;9.126;2023-07-09T08:40:12;98949.16;;;28.01;36.82
60820;BME280;46641;48.904;9.126;2023-07-09T08:50:11;98936.66;;;28.11;36.48
60820;BME280;46641;48.904;9.126;2023-07-09T08:55:07;98942.66;;;28.18;36.99
60820;BME280;46641;48.904;9.126;2023-07-09T09:00:07;98947.34;;;28.28;36.90
60820;BME280;46641;48.904;9.126;2023-07-09T09:05:03;98943.13;;;28.37;36.94
60820;BME280;46641;48.904;9.126;2023-07-09T09:09:58;98944.66;;;28.50;36.31
60820;BME280;46641;48.904;9.126;2023-07-09T09:15:01;98934.28;;;28.64;36.61
60820;BME280;46641;48.904;9.126;2023-07-09T09:19:57;98943.00;;;28.76;36.48
60820;BME280;46641;48.904;9.126;2023-07-09T09:25:01;98937.72;;;28.86;35.90
60820;BME280;46641;48.904;9.126;2023-07-09T09:29:53;98942.66;;;29.00;35.86
60820;BME280;46641;48.904;9.126;2023-07-09T09:34:43;98936.31;;;29.11;35.99
60820;BME280;46641;48.904;9.126;2023-07-09T09:39:38;98936.13;;;29.23;36.98
60820;BME280;46641;48.904;9.126;2023-07-09T09:44:29;98933.78;;;29.37;37.11
60820;BME280;46641;48.904;9.126;2023-07-09T09:49:20;98946.31;;;29.53;37.55
60820;BME280;46641;48.904;9.126;2023-07-09T09:54:25;98940.50;;;29.71;36.94
60820;BME280;46641;48.904;9.126;2023-07-09T09:59:23;98935.16;;;29.87;37.57
60820;BME280;46641;48.904;9.126;2023-07-09T10:04:19;98923.66;;;30.07;37.80
60820;BME280;46641;48.904;9.126;2023-07-09T10:09:27;98919.16;;;30.27;38.12
60820;BME280;46641;48.904;9.126;2023-07-09T10:14:37;98914.63;;;30.48;37.74
60820;BME280;46641;48.904;9.126;2023-07-09T10:30:30;98907.88;;;31.12;38.19
60820;BME280;46641;48.904;9.126;2023-07-09T10:35:38;98894.91;;;31.35;38.43
60820;BME280;46641;48.904;9.126;2023-07-09T10:40:36;98891.31;;;31.55;38.81
60820;BME280;46641;48.904;9.126;2023-07-09T10:45:34;98884.50;;;31.73;38.94
60820;BME280;46641;48.904;9.126;2023-07-09T10:50:34;98889.56;;;31.95;39.05
60820;BME280;46641;48.904;9.126;2023-07-09T10:55:36;98869.97;;;32.13;38.91
60820;BME280;46641;48.904;9.126;2023-07-09T11:00:34;98877.16;;;32.33;39.34
60820;BME280;46641;48.904;9.126;2023-07-09T11:05:25;98858.94;;;32.49;38.91
60820;BME280;46641;48.904;9.126;2023-07-09T11:11:01;98864.75;;;32.66;38.75
60820;BME280;46641;48.904;9.126;2023-07-09T11:15:55;98853.50;;;32.83;39.49
60820;BME280;46641;48.904;9.126;2023-07-09T11:20:59;98851.50;;;32.99;39.51
60820;BME280;46641;48.904;9.126;2023-07-09T11:31:06;98860.63;;;33.32;39.44
60820;BME280;46641;48.904;9.126;2023-07-09T11:36:24;98855.00;;;33.47;38.99
60820;BME280;46641;48.904;9.126;2023-07-09T11:46:26;98841.97;;;33.55;25.81
60820;BME280;46641;48.904;9.126;2023-07-09T11:51:21;98847.56;;;33.82;32.61
60820;BME280;46641;48.904;9.126;2023-07-09T11:56:13;98842.19;;;34.01;33.74
60820;BME280;46641;48.904;9.126;2023-07-09T12:01:14;98840.56;;;34.19;34.94
60820;BME280;46641;48.904;9.126;2023-07-09T12:06:28;98834.38;;;34.32;34.48
60820;BME280;46641;48.904;9.126;2023-07-09T12:11:33;98828.78;;;34.42;34.89
60820;BME280;46641;48.904;9.126;2023-07-09T12:16:35;98823.22;;;34.53;34.74
60820;BME280;46641;48.904;9.126;2023-07-09T12:21:26;98822.03;;;34.59;35.02
60820;BME280;46641;48.904;9.126;2023-07-09T12:26:18;98822.44;;;34.66;35.27
60820;BME280;46641;48.904;9.126;2023-07-09T12:31:16;98826.09;;;34.75;35.20
60820;BME280;46641;48.904;9.126;2023-07-09T12:36:06;98809.97;;;34.79;35.22
60820;BME280;46641;48.904;9.126;2023-07-09T12:40:59;98804.94;;;34.86;34.86
60820;BME280;46641;48.904;9.126;2023-07-09T12:45:51;98792.06;;;34.92;34.89
60820;BME280;46641;48.904;9.126;2023-07-09T12:50:49;98792.47;;;34.99;35.03
60820;BME280;46641;48.904;9.126;2023-07-09T12:55:42;98786.16;;;35.03;34.62
60820;BME280;46641;48.904;9.126;2023-07-09T13:00:34;98777.56;;;35.10;34.96
60820;BME280;46641;48.904;9.126;2023-07-09T13:05:26;98773.16;;;35.14;34.71
60820;BME280;46641;48.904;9.126;2023-07-09T13:10:25;98764.09;;;35.19;34.45
60820;BME280;46641;48.904;9.126;2023-07-09T13:15:41;98747.75;;;35.19;33.93
60820;BME280;46641;48.904;9.126;2023-07-09T13:20:36;98739.28;;;35.20;33.82
60820;BME280;46641;48.904;9.126;2023-07-09T13:25:27;98740.38;;;35.19;34.03
60820;BME280;46641;48.904;9.126;2023-07-09T13:30:18;98732.22;;;35.19;34.15
60820;BME280;46641;48.904;9.126;2023-07-09T13:35:16;98728.41;;;35.20;34.85
60820;BME280;46641;48.904;9.126;2023-07-09T13:40:10;98731.63;;;35.22;34.52
60820;BME280;46641;48.904;9.126;2023-07-09T13:45:01;98720.13;;;35.25;34.49
60820;BME280;46641;48.904;9.126;2023-07-09T13:49:51;98727.69;;;35.28;34.24
60820;BME280;46641;48.904;9.126;2023-07-09T13:54:42;98715.66;;;35.29;34.22
60820;BME280;46641;48.904;9.126;2023-07-09T13:59:32;98724.34;;;35.31;34.13
60820;BME280;46641;48.904;9.126;2023-07-09T14:04:24;98715.56;;;35.34;33.74
60820;BME280;46641;48.904;9.126;2023-07-09T14:09:15;98706.28;;;35.35;34.12
60820;BME280;46641;48.904;9.126;2023-07-09T14:14:21;98702.16;;;35.38;33.55
60820;BME280;46641;48.904;9.126;2023-07-09T14:19:17;98693.69;;;35.40;33.69
60820;BME280;46641;48.904;9.126;2023-07-09T14:24:22;98693.88;;;35.43;32.99
60820;BME280;46641;48.904;9.126;2023-07-09T14:29:13;98686.81;;;35.42;33.48
60820;BME280;46641;48.904;9.126;2023-07-09T14:34:32;98686.53;;;35.44;33.48
60820;BME280;46641;48.904;9.126;2023-07-09T14:39:23;98673.38;;;35.46;33.54
60820;BME280;46641;48.904;9.126;2023-07-09T14:44:31;98677.75;;;35.47;33.82
60820;BME280;46641;48.904;9.126;2023-07-09T14:49:22;98672.28;;;35.47;33.79
60820;BME280;46641;48.904;9.126;2023-07-09T14:54:27;98667.84;;;35.51;33.84
60820;BME280;46641;48.904;9.126;2023-07-09T14:59:17;98664.84;;;35.52;32.84
60820;BME280;46641;48.904;9.126;2023-07-09T15:04:28;98661.81;;;35.54;33.19
60820;BME280;46641;48.904;9.126;2023-07-09T15:09:21;98666.63;;;35.57;33.29
60820;BME280;46641;48.904;9.126;2023-07-09T15:14:12;98666.81;;;35.61;33.04
60820;BME280;46641;48.904;9.126;2023-07-09T15:19:15;98654.50;;;35.63;33.46
60820;BME280;46641;48.904;9.126;2023-07-09T15:24:28;98648.28;;;35.63;33.44
60820;BME280;46641;48.904;9.126;2023-07-09T15:29:21;98653.09;;;35.66;32.87
60820;BME280;46641;48.904;9.126;2023-07-09T15:34:12;98655.19;;;35.69;33.51
60820;BME280;46641;48.904;9.126;2023-07-09T15:39:04;98649.44;;;35.70;33.56
60820;BME280;46641;48.904;9.126;2023-07-09T15:43:54;98651.03;;;35.71;32.94
60820;BME280;46641;48.904;9.126;2023-07-09T15:48:45;98652.16;;;35.70;33.20
60820;BME280;46641;48.904;9.126;2023-07-09T15:53:36;98648.50;;;35.75;32.98
60820;BME280;46641;48.904;9.126;2023-07-09T15:58:33;98642.25;;;35.74;32.92
60820;BME280;46641;48.904;9.126;2023-07-09T16:03:25;98652.22;;;35.79;32.88
60820;BME280;46641;48.904;9.126;2023-07-09T16:08:15;98648.38;;;35.80;33.12
60820;BME280;46641;48.904;9.126;2023-07-09T16:13:16;98648.09;;;35.81;33.11
60820;BME280;46641;48.904;9.126;2023-07-09T16:18:09;98656.72;;;35.84;32.80
60820;BME280;46641;48.904;9.126;2023-07-09T16:23:01;98642.00;;;35.85;33.02
60820;BME280;46641;48.904;9.126;2023-07-09T16:27:51;98641.19;;;35.84;32.23
60820;BME280;46641;48.904;9.126;2023-07-09T16:32:42;98639.25;;;35.85;32.56
60820;BME280;46641;48.904;9.126;2023-07-09T16:37:32;98633.34;;;35.83;32.28
60820;BME280;46641;48.904;9.126;2023-07-09T16:42:23;98629.81;;;35.82;32.41
60820;BME280;46641;48.904;9.126;2023-07-09T16:47:18;98632.84;;;35.80;32.29
60820;BME280;46641;48.904;9.126;2023-07-09T16:52:16;98631.06;;;35.76;28.17
60820;BME280;46641;48.904;9.126;2023-07-09T16:57:18;98629.63;;;35.78;25.45
60820;BME280;46641;48.904;9.126;2023-07-09T17:02:28;98630.78;;;35.86;27.09
60820;BME280;46641;48.904;9.126;2023-07-09T17:07:18;98612.25;;;35.97;26.05
60820;BME280;46641;48.904;9.126;2023-07-09T17:12:10;98603.22;;;36.10;25.75
60820;BME280;46641;48.904;9.126;2023-07-09T17:17:01;98596.16;;;36.09;26.33
60820;BME280;46641;48.904;9.126;2023-07-09T17:21:54;98583.00;;;36.02;26.93
60820;BME280;46641;48.904;9.126;2023-07-09T17:26:46;98595.63;;;35.98;27.31
60820;BME280;46641;48.904;9.126;2023-07-09T17:31:37;98601.69;;;35.95;27.72
60820;BME280;46641;48.904;9.126;2023-07-09T17:36:34;98601.00;;;35.90;27.72
60820;BME280;46641;48.904;9.126;2023-07-09T17:41:24;98602.75;;;35.86;27.54
60820;BME280;46641;48.904;9.126;2023-07-09T17:46:15;98613.75;;;35.80;27.94
60820;BME280;46641;48.904;9.126;2023-07-09T17:51:06;98614.88;;;35.79;27.86
60820;BME280;46641;48.904;9.126;2023-07-09T17:55:57;98625.91;;;35.74;28.00
60820;BME280;46641;48.904;9.126;2023-07-09T18:00:48;98616.25;;;35.68;28.85
60820;BME280;46641;48.904;9.126;2023-07-09T18:05:40;98627.47;;;35.67;28.85
60820;BME280;46641;48.904;9.126;2023-07-09T18:10:33;98624.84;;;35.62;28.83
60820;BME280;46641;48.904;9.126;2023-07-09T18:15:25;98625.78;;;35.57;28.36
60820;BME280;46641;48.904;9.126;2023-07-09T18:20:19;98627.53;;;35.53;29.09
60820;BME280;46641;48.904;9.126;2023-07-09T18:25:10;98631.94;;;35.49;28.44
60820;BME280;46641;48.904;9.126;2023-07-09T18:30:01;98622.31;;;35.43;28.88
60820;BME280;46641;48.904;9.126;2023-07-09T18:34:54;98624.31;;;35.37;28.72
60820;BME280;46641;48.904;9.126;2023-07-09T18:39:45;98630.38;;;35.34;29.29
60820;BME280;46641;48.904;9.126;2023-07-09T18:44:36;98636.75;;;35.29;29.49
60820;BME280;46641;48.904;9.126;2023-07-09T18:49:26;98640.72;;;35.23;29.43
60820;BME280;46641;48.904;9.126;2023-07-09T18:54:18;98647.38;;;35.17;28.91
60820;BME280;46641;48.904;9.126;2023-07-09T18:59:17;98650.19;;;35.12;29.28
60820;BME280;46641;48.904;9.126;2023-07-09T19:04:20;98643.56;;;35.04;29.07
60820;BME280;46641;48.904;9.126;2023-07-09T19:09:29;98648.28;;;34.99;29.66
60820;BME280;46641;48.904;9.126;2023-07-09T19:14:20;98645.66;;;34.94;29.21
60820;BME280;46641;48.904;9.126;2023-07-09T19:19:12;98643.34;;;34.87;29.69
60820;BME280;46641;48.904;9.126;2023-07-09T19:24:23;98642.97;;;34.80;30.00
60820;BME280;46641;48.904;9.126;2023-07-09T19:29:14;98648.53;;;34.75;29.60
60820;BME280;46641;48.904;9.126;2023-07-09T19:34:05;98657.56;;;34.70;29.37
60820;BME280;46641;48.904;9.126;2023-07-09T19:38:55;98649.00;;;34.63;29.64
60820;BME280;46641;48.904;9.126;2023-07-09T19:43:46;98657.25;;;34.58;30.08
60820;BME280;46641;48.904;9.126;2023-07-09T19:48:36;98660.66;;;34.50;30.37
60820;BME280;46641;48.904;9.126;2023-07-09T19:53:26;98653.72;;;34.43;30.33
60820;BME280;46641;48.904;9.126;2023-07-09T19:58:17;98666.59;;;34.38;29.82
60820;BME280;46641;48.904;9.126;2023-07-09T20:08:17;98669.28;;;34.24;29.73
60820;BME280;46641;48.904;9.126;2023-07-09T20:13:13;98672.38;;;34.17;30.57
60820;BME280;46641;48.904;9.126;2023-07-09T20:18:12;98675.50;;;34.11;29.86
60820;BME280;46641;48.904;9.126;2023-07-09T20:23:03;98674.28;;;34.03;30.38
60820;BME280;46641;48.904;9.126;2023-07-09T20:27:53;98678.94;;;33.97;30.65
60820;BME280;46641;48.904;9.126;2023-07-09T20:32:45;98678.22;;;33.92;29.91
60820;BME280;46641;48.904;9.126;2023-07-09T20:37:35;98684.03;;;33.85;29.87
60820;BME280;46641;48.904;9.126;2023-07-09T20:42:26;98676.56;;;33.77;30.82
60820;BME280;46641;48.904;9.126;2023-07-09T20:47:19;98672.31;;;33.71;31.14
60820;BME280;46641;48.904;9.126;2023-07-09T20:52:10;98673.50;;;33.65;30.21
60820;BME280;46641;48.904;9.126;2023-07-09T20:57:01;98663.81;;;33.59;30.38
60820;BME280;46641;48.904;9.126;2023-07-09T21:01:53;98667.72;;;33.53;31.05
60820;BME280;46641;48.904;9.126;2023-07-09T21:06:47;98665.63;;;33.44;30.67
60820;BME280;46641;48.904;9.126;2023-07-09T21:11:38;98662.47;;;33.37;30.49
60820;BME280;46641;48.904;9.126;2023-07-09T21:16:28;98675.31;;;33.32;30.69
60820;BME280;46641;48.904;9.126;2023-07-09T21:21:19;98670.25;;;33.25;30.53
60820;BME280;46641;48.904;9.126;2023-07-09T21:26:14;98684.97;;;33.19;31.08
60820;BME280;46641;48.904;9.126;2023-07-09T21:31:11;98681.81;;;33.12;31.15
60820;BME280;46641;48.904;9.126;2023-07-09T21:36:05;98683.78;;;33.06;30.81
60820;BME280;46641;48.904;9.126;2023-07-09T21:40:55;98678.72;;;32.99;31.01
60820;BME280;46641;48.904;9.126;2023-07-09T21:45:49;98688.00;;;32.93;31.06
60820;BME280;46641;48.904;9.126;2023-07-09T21:50:40;98683.72;;;32.87;31.00
60820;BME280;46641;48.904;9.126;2023-07-09T21:55:31;98688.38;;;32.81;31.48
60820;BME280;46641;48.904;9.126;2023-07-09T22:00:24;98693.34;;;32.74;31.36
60820;BME280;46641;48.904;9.126;2023-07-09T22:05:20;98700.72;;;32.69;31.37
60820;BME280;46641;48.904;9.126;2023-07-09T22:10:12;98699.16;;;32.63;31.39
60820;BME280;46641;48.904;9.126;2023-07-09T22:15:13;98700.34;;;32.56;31.62
60820;BME280;46641;48.904;9.126;2023-07-09T22:20:04;98711.50;;;32.50;32.29
60820;BME280;46641;48.904;9.126;2023-07-09T22:24:55;98711.81;;;32.43;31.49
60820;BME280;46641;48.904;9.126;2023-07-09T22:29:46;98715.66;;;32.37;31.57
60820;BME280;46641;48.904;9.126;2023-07-09T22:34:36;98712.19;;;32.31;31.83
60820;BME280;46641;48.904;9.126;2023-07-09T22:39:26;98711.44;;;32.26;32.82
60820;BME280;46641;48.904;9.126;2023-07-09T22:44:16;98708.25;;;32.19;32.12
60820;BME280;46641;48.904;9.126;2023-07-09T22:49:14;98711.56;;;32.10;32.08
60820;BME280;46641;48.904;9.126;2023-07-09T22:54:08;98714.03;;;32.07;31.93
60820;BME280;46641;48.904;9.126;2023-07-09T22:58:59;98718.69;;;32.01;32.15
60820;BME280;46641;48.904;9.126;2023-07-09T23:03:49;98718.72;;;31.96;32.09
60820;BME280;46641;48.904;9.126;2023-07-09T23:08:39;98717.94;;;31.91;32.19
60820;BME280;46641;48.904;9.126;2023-07-09T23:13:32;98712.81;;;31.84;32.05
60820;BME280;46641;48.904;9.126;2023-07-09T23:18:24;98719.34;;;31.78;32.29
60820;BME280;46641;48.904;9.126;2023-07-09T23:23:16;98722.63;;;31.75;32.66
60820;BME280;46641;48.904;9.126;2023-07-09T23:28:06;98715.63;;;31.69;32.17
60820;BME280;46641;48.904;9.126;2023-07-09T23:32:57;98714.88;;;31.63;32.45
60820;BME280;46641;48.904;9.126;2023-07-09T23:37:48;98714.06;;;31.57;32.53
60820;BME280;46641;48.904;9.126;2023-07-09T23:42:40;98710.06;;;31.50;32.50
60820;BME280;46641;48.904;9.126;2023-07-09T23:47:31;98716.31;;;31.45;32.55
60820;BME280;46641;48.904;9.126;2023-07-09T23:52:22;98719.06;;;31.40;32.63
60820;BME280;46641;48.904;9.126;2023-07-09T23:57:13;98727.19;;;31.35;32.92
